sensor_id;sensor_type;location;lat;lon;timestamp;temperature;humidity
3051;DHT22;1535;51.098;6.414;2022-10-03T00:01:54;7.60;99.90
3051;DHT22;1535;51.098;6.414;2022-10-03T00:04:40;7.60;99.90
3051;DHT22;1535;51.098;6.414;2022-10-03T00:07:19;7.70;99.90
3051;DHT22;1535;51.098;6.414;2022-10-03T00:09:58;7.70;99.90
3051;DHT22;1535;51.098;6.414;2022-10-03T00:12:52;7.70;99.90
3051;DHT22;1535;51.098;6.414;2022-10-03T00:15:27;7.70;99.90
3051;DHT22;1535;51.098;6.414;2022-10-03T00:18:04;7.70;99.90
3051;DHT22;1535;51.098;6.414;2022-10-03T00:20:47;7.70;99.90
3051;DHT22;1535;51.098;6.414;2022-10-03T00:23:21;7.70;99.90
3051;DHT22;1535;51.098;6.414;2022-10-03T00:25:57;7.80;99.90
3051;DHT22;1535;51.098;6.414;2022-10-03T00:28:58;7.80;99.90
3051;DHT22;1535;51.098;6.414;2022-10-03T00:31:37;7.70;99.90
3051;DHT22;1535;51.098;6.414;2022-10-03T00:34:16;7.80;99.90
3051;DHT22;1535;51.098;6.414;2022-10-03T00:36:53;8.10;99.90
3051;DHT22;1535;51.098;6.414;2022-10-03T00:39:44;8.20;99.90
3051;DHT22;1535;51.098;6.414;2022-10-03T00:42:42;8.30;99.90
3051;DHT22;1535;51.098;6.414;2022-10-03T00:45:39;8.40;99.90
3051;DHT22;1535;51.098;6.414;2022-10-03T00:48:18;8.40;99.90
3051;DHT22;1535;51.098;6.414;2022-10-03T00:51:04;8.50;99.90
3051;DHT22;1535;51.098;6.414;2022-10-03T00:53:42;8.60;99.90
3051;DHT22;1535;51.098;6.414;2022-10-03T00:56:27;8.60;99.90
3051;DHT22;1535;51.098;6.414;2022-10-03T00:59:16;8.50;99.90
3051;DHT22;1535;51.098;6.414;2022-10-03T01:01:47;8.50;99.90
3051;DHT22;1535;51.098;6.414;2022-10-03T01:04:38;8.60;99.90
3051;DHT22;1535;51.098;6.414;2022-10-03T01:07:29;8.70;99.90
3051;DHT22;1535;51.098;6.414;2022-10-03T01:10:04;8.60;99.90
3051;DHT22;1535;51.098;6.414;2022-10-03T01:15:42;8.60;99.90
3051;DHT22;1535;51.098;6.414;2022-10-03T01:18:23;8.60;99.90
3051;DHT22;1535;51.098;6.414;2022-10-03T01:21:01;8.60;99.90
3051;DHT22;1535;51.098;6.414;2022-10-03T01:23:58;8.50;99.90
3051;DHT22;1535;51.098;6.414;2022-10-03T01:26:51;8.50;99.90
3051;DHT22;1535;51.098;6.414;2022-10-03T01:29:24;8.50;99.90
3051;DHT22;1535;51.098;6.414;2022-10-03T01:32:14;8.40;99.90
3051;DHT22;1535;51.098;6.414;2022-10-03T01:34:47;8.40;99.90
3051;DHT22;1535;51.098;6.414;2022-10-03T01:37:24;8.40;99.90
3051;DHT22;1535;51.098;6.414;2022-10-03T01:40:02;8.40;99.90
3051;DHT22;1535;51.098;6.414;2022-10-03T01:42:38;8.30;99.90
3051;DHT22;1535;51.098;6.414;2022-10-03T01:45:14;8.30;99.90
3051;DHT22;1535;51.098;6.414;2022-10-03T01:47:50;8.30;99.90
3051;DHT22;1535;51.098;6.414;2022-10-03T01:50:24;8.20;99.90
3051;DHT22;1535;51.098;6.414;2022-10-03T01:52:56;8.10;99.90
3051;DHT22;1535;51.098;6.414;2022-10-03T01:55:30;8.10;99.90
3051;DHT22;1535;51.098;6.414;2022-10-03T01:58:04;8.10;99.90
3051;DHT22;1535;51.098;6.414;2022-10-03T02:00:42;8.10;99.90
3051;DHT22;1535;51.098;6.414;2022-10-03T02:03:19;8.10;99.90
3051;DHT22;1535;51.098;6.414;2022-10-03T02:05:52;8.00;99.90
3051;DHT22;1535;51.098;6.414;2022-10-03T02:08:28;8.00;99.90
3051;DHT22;1535;51.098;6.414;2022-10-03T02:11:00;8.00;99.90
3051;DHT22;1535;51.098;6.414;2022-10-03T02:13:36;8.00;99.90
3051;DHT22;1535;51.098;6.414;2022-10-03T02:16:10;8.10;99.90
3051;DHT22;1535;51.098;6.414;2022-10-03T02:18:44;8.00;99.90
3051;DHT22;1535;51.098;6.414;2022-10-03T02:21:16;8.10;99.90
3051;DHT22;1535;51.098;6.414;2022-10-03T02:23:46;8.10;99.90
3051;DHT22;1535;51.098;6.414;2022-10-03T02:26:30;8.10;99.90
3051;DHT22;1535;51.098;6.414;2022-10-03T02:29:24;8.10;99.90
3051;DHT22;1535;51.098;6.414;2022-10-03T02:32:14;8.10;99.90
3051;DHT22;1535;51.098;6.414;2022-10-03T02:35:04;8.10;99.90
3051;DHT22;1535;51.098;6.414;2022-10-03T02:38:05;8.00;99.90
3051;DHT22;1535;51.098;6.414;2022-10-03T02:41:12;8.10;99.90
3051;DHT22;1535;51.098;6.414;2022-10-03T02:50:11;8.10;99.90
3051;DHT22;1535;51.098;6.414;2022-10-03T02:53:20;8.00;99.90
3051;DHT22;1535;51.098;6.414;2022-10-03T02:56:21;7.90;99.90
3051;DHT22;1535;51.098;6.414;2022-10-03T02:59:17;7.70;99.90
3051;DHT22;1535;51.098;6.414;2022-10-03T03:02:05;7.70;99.90
3051;DHT22;1535;51.098;6.414;2022-10-03T03:08:07;7.90;99.90
3051;DHT22;1535;51.098;6.414;2022-10-03T03:14:18;7.90;99.90
3051;DHT22;1535;51.098;6.414;2022-10-03T03:16:58;8.00;99.90
3051;DHT22;1535;51.098;6.414;2022-10-03T03:19:44;8.00;99.90
3051;DHT22;1535;51.098;6.414;2022-10-03T03:22:24;7.90;99.90
3051;DHT22;1535;51.098;6.414;2022-10-03T03:25:12;7.80;99.90
3051;DHT22;1535;51.098;6.414;2022-10-03T03:27:47;7.70;99.90
3051;DHT22;1535;51.098;6.414;2022-10-03T03:30:20;7.70;99.90
3051;DHT22;1535;51.098;6.414;2022-10-03T03:32:55;7.60;99.90
3051;DHT22;1535;51.098;6.414;2022-10-03T03:35:33;7.50;99.90
3051;DHT22;1535;51.098;6.414;2022-10-03T03:38:15;7.50;99.90
3051;DHT22;1535;51.098;6.414;2022-10-03T03:40:55;7.60;99.90
3051;DHT22;1535;51.098;6.414;2022-10-03T03:43:42;7.60;99.90
3051;DHT22;1535;51.098;6.414;2022-10-03T03:46:23;7.70;99.90
3051;DHT22;1535;51.098;6.414;2022-10-03T03:49:00;7.80;99.90
3051;DHT22;1535;51.098;6.414;2022-10-03T03:51:40;7.80;99.90
3051;DHT22;1535;51.098;6.414;2022-10-03T03:54:36;7.70;99.90
3051;DHT22;1535;51.098;6.414;2022-10-03T03:57:30;7.60;99.90
3051;DHT22;1535;51.098;6.414;2022-10-03T04:00:05;7.70;99.90
3051;DHT22;1535;51.098;6.414;2022-10-03T04:02:43;7.70;99.90
3051;DHT22;1535;51.098;6.414;2022-10-03T04:05:24;7.70;99.90
3051;DHT22;1535;51.098;6.414;2022-10-03T04:08:05;7.60;99.90
3051;DHT22;1535;51.098;6.414;2022-10-03T04:10:44;7.50;99.90
3051;DHT22;1535;51.098;6.414;2022-10-03T04:13:28;7.60;99.90
3051;DHT22;1535;51.098;6.414;2022-10-03T04:16:24;7.60;99.90
3051;DHT22;1535;51.098;6.414;2022-10-03T04:19:22;7.50;99.90
3051;DHT22;1535;51.098;6.414;2022-10-03T04:22:08;7.30;99.90
3051;DHT22;1535;51.098;6.414;2022-10-03T04:24:52;7.20;99.90
3051;DHT22;1535;51.098;6.414;2022-10-03T04:27:40;7.20;99.90
3051;DHT22;1535;51.098;6.414;2022-10-03T04:30:15;7.20;99.90
3051;DHT22;1535;51.098;6.414;2022-10-03T04:32:55;7.10;99.90
3051;DHT22;1535;51.098;6.414;2022-10-03T04:35:54;7.10;99.90
3051;DHT22;1535;51.098;6.414;2022-10-03T04:38:42;7.10;99.90
3051;DHT22;1535;51.098;6.414;2022-10-03T04:41:19;7.00;99.90
3051;DHT22;1535;51.098;6.414;2022-10-03T04:43:51;6.90;99.90
3051;DHT22;1535;51.098;6.414;2022-10-03T04:46:28;6.90;99.90
3051;DHT22;1535;51.098;6.414;2022-10-03T04:49:02;6.90;99.90
3051;DHT22;1535;51.098;6.414;2022-10-03T04:51:40;7.00;99.90
3051;DHT22;1535;51.098;6.414;2022-10-03T04:54:18;7.10;99.90
3051;DHT22;1535;51.098;6.414;2022-10-03T04:56:51;7.00;99.90
3051;DHT22;1535;51.098;6.414;2022-10-03T04:59:41;7.10;99.90
3051;DHT22;1535;51.098;6.414;2022-10-03T05:02:27;7.10;99.90
3051;DHT22;1535;51.098;6.414;2022-10-03T05:05:15;7.00;99.90
3051;DHT22;1535;51.098;6.414;2022-10-03T05:07:49;7.10;99.90
3051;DHT22;1535;51.098;6.414;2022-10-03T05:10:25;7.10;99.90
3051;DHT22;1535;51.098;6.414;2022-10-03T05:12:58;7.00;99.90
3051;DHT22;1535;51.098;6.414;2022-10-03T05:15:31;6.80;99.90
3051;DHT22;1535;51.098;6.414;2022-10-03T05:18:12;6.70;99.90
3051;DHT22;1535;51.098;6.414;2022-10-03T05:20:46;6.60;99.90
3051;DHT22;1535;51.098;6.414;2022-10-03T05:23:23;6.60;99.90
3051;DHT22;1535;51.098;6.414;2022-10-03T05:26:00;6.70;99.90
3051;DHT22;1535;51.098;6.414;2022-10-03T05:28:36;6.80;99.90
3051;DHT22;1535;51.098;6.414;2022-10-03T05:31:19;6.80;99.90
3051;DHT22;1535;51.098;6.414;2022-10-03T05:33:57;6.80;99.90
3051;DHT22;1535;51.098;6.414;2022-10-03T05:36:30;6.90;99.90
3051;DHT22;1535;51.098;6.414;2022-10-03T05:42:12;7.10;99.90
3051;DHT22;1535;51.098;6.414;2022-10-03T05:44:48;7.10;99.90
3051;DHT22;1535;51.098;6.414;2022-10-03T05:47:26;7.30;99.90
3051;DHT22;1535;51.098;6.414;2022-10-03T05:50:33;7.40;99.90
3051;DHT22;1535;51.098;6.414;2022-10-03T05:53:07;7.60;99.90
3051;DHT22;1535;51.098;6.414;2022-10-03T05:55:57;7.70;99.90
3051;DHT22;1535;51.098;6.414;2022-10-03T05:58:41;7.80;99.90
3051;DHT22;1535;51.098;6.414;2022-10-03T06:01:45;8.00;99.90
3051;DHT22;1535;51.098;6.414;2022-10-03T06:07:43;8.30;99.90
3051;DHT22;1535;51.098;6.414;2022-10-03T06:10:36;8.30;99.90
3051;DHT22;1535;51.098;6.414;2022-10-03T06:13:15;8.40;99.90
3051;DHT22;1535;51.098;6.414;2022-10-03T06:15:53;8.50;99.90
3051;DHT22;1535;51.098;6.414;2022-10-03T06:18:58;8.70;99.90
3051;DHT22;1535;51.098;6.414;2022-10-03T06:28:08;9.20;99.90
3051;DHT22;1535;51.098;6.414;2022-10-03T06:30:56;9.40;99.90
3051;DHT22;1535;51.098;6.414;2022-10-03T06:33:39;9.50;99.90
3051;DHT22;1535;51.098;6.414;2022-10-03T06:36:30;9.60;99.90
3051;DHT22;1535;51.098;6.414;2022-10-03T06:39:27;9.50;99.90
3051;DHT22;1535;51.098;6.414;2022-10-03T06:42:26;9.60;99.90
3051;DHT22;1535;51.098;6.414;2022-10-03T06:45:31;9.80;99.90
3051;DHT22;1535;51.098;6.414;2022-10-03T06:48:23;10.00;99.90
3051;DHT22;1535;51.098;6.414;2022-10-03T06:51:01;10.10;99.90
3051;DHT22;1535;51.098;6.414;2022-10-03T06:56:49;10.40;99.90
3051;DHT22;1535;51.098;6.414;2022-10-03T06:59:44;10.30;99.90
3051;DHT22;1535;51.098;6.414;2022-10-03T07:02:46;10.40;99.90
3051;DHT22;1535;51.098;6.414;2022-10-03T07:06:01;10.50;99.90
3051;DHT22;1535;51.098;6.414;2022-10-03T07:08:58;10.40;99.90
3051;DHT22;1535;51.098;6.414;2022-10-03T07:11:39;10.40;99.90
3051;DHT22;1535;51.098;6.414;2022-10-03T07:14:34;10.20;99.90
3051;DHT22;1535;51.098;6.414;2022-10-03T07:17:26;10.20;99.90
3051;DHT22;1535;51.098;6.414;2022-10-03T07:20:13;10.10;99.90
3051;DHT22;1535;51.098;6.414;2022-10-03T07:26:13;10.30;99.90
3051;DHT22;1535;51.098;6.414;2022-10-03T07:29:06;10.40;99.90
3051;DHT22;1535;51.098;6.414;2022-10-03T07:31:46;10.60;99.90
3051;DHT22;1535;51.098;6.414;2022-10-03T07:37:40;10.70;99.90
3051;DHT22;1535;51.098;6.414;2022-10-03T07:46:48;11.50;99.90
3051;DHT22;1535;51.098;6.414;2022-10-03T07:49:36;11.50;99.90
3051;DHT22;1535;51.098;6.414;2022-10-03T07:52:43;11.60;99.90
3051;DHT22;1535;51.098;6.414;2022-10-03T07:55:37;11.80;99.90
3051;DHT22;1535;51.098;6.414;2022-10-03T07:58:34;11.90;99.90
3051;DHT22;1535;51.098;6.414;2022-10-03T08:07:56;12.50;99.90
3051;DHT22;1535;51.098;6.414;2022-10-03T08:13:44;12.40;99.90
3051;DHT22;1535;51.098;6.414;2022-10-03T08:16:23;12.40;99.90
3051;DHT22;1535;51.098;6.414;2022-10-03T08:19:14;12.40;99.90
3051;DHT22;1535;51.098;6.414;2022-10-03T08:21:55;12.30;99.90
3051;DHT22;1535;51.098;6.414;2022-10-03T08:24:48;12.20;99.90
3051;DHT22;1535;51.098;6.414;2022-10-03T08:27:38;12.30;99.90
3051;DHT22;1535;51.098;6.414;2022-10-03T08:30:21;12.30;99.90
3051;DHT22;1535;51.098;6.414;2022-10-03T08:32:56;12.30;99.90
3051;DHT22;1535;51.098;6.414;2022-10-03T08:35:32;12.30;99.90
3051;DHT22;1535;51.098;6.414;2022-10-03T08:41:54;12.50;99.90
3051;DHT22;1535;51.098;6.414;2022-10-03T08:44:50;12.60;99.90
3051;DHT22;1535;51.098;6.414;2022-10-03T08:48:01;12.70;99.90
3051;DHT22;1535;51.098;6.414;2022-10-03T08:51:01;12.80;99.90
3051;DHT22;1535;51.098;6.414;2022-10-03T08:53:57;12.90;99.90
3051;DHT22;1535;51.098;6.414;2022-10-03T08:56:45;13.00;99.90
3051;DHT22;1535;51.098;6.414;2022-10-03T09:02:55;13.30;99.90
3051;DHT22;1535;51.098;6.414;2022-10-03T09:05:47;13.30;99.90
3051;DHT22;1535;51.098;6.414;2022-10-03T09:08:54;13.50;99.90
3051;DHT22;1535;51.098;6.414;2022-10-03T09:18:05;13.70;99.90
3051;DHT22;1535;51.098;6.414;2022-10-03T09:21:03;13.90;99.90
3051;DHT22;1535;51.098;6.414;2022-10-03T09:24:03;14.00;99.90
3051;DHT22;1535;51.098;6.414;2022-10-03T09:27:08;14.10;99.90
3051;DHT22;1535;51.098;6.414;2022-10-03T09:30:12;14.10;99.90
3051;DHT22;1535;51.098;6.414;2022-10-03T09:33:22;14.30;99.90
3051;DHT22;1535;51.098;6.414;2022-10-03T09:42:38;14.50;99.90
3051;DHT22;1535;51.098;6.414;2022-10-03T09:45:24;15.10;99.90
3051;DHT22;1535;51.098;6.414;2022-10-03T09:48:18;15.70;99.90
3051;DHT22;1535;51.098;6.414;2022-10-03T09:51:20;16.40;99.90
3051;DHT22;1535;51.098;6.414;2022-10-03T09:57:07;17.90;99.90
3051;DHT22;1535;51.098;6.414;2022-10-03T09:59:55;18.60;99.90
3051;DHT22;1535;51.098;6.414;2022-10-03T10:02:55;18.70;99.90
3051;DHT22;1535;51.098;6.414;2022-10-03T10:05:49;19.00;99.90
3051;DHT22;1535;51.098;6.414;2022-10-03T10:08:38;19.10;99.90
3051;DHT22;1535;51.098;6.414;2022-10-03T10:11:19;19.00;99.90
3051;DHT22;1535;51.098;6.414;2022-10-03T10:14:23;18.80;99.90
3051;DHT22;1535;51.098;6.414;2022-10-03T10:20:10;18.50;99.90
3051;DHT22;1535;51.098;6.414;2022-10-03T10:23:06;18.10;99.90
3051;DHT22;1535;51.098;6.414;2022-10-03T10:26:01;17.90;99.90
3051;DHT22;1535;51.098;6.414;2022-10-03T10:32:13;19.70;99.90
3051;DHT22;1535;51.098;6.414;2022-10-03T10:35:11;20.60;99.90
3051;DHT22;1535;51.098;6.414;2022-10-03T10:38:13;21.00;99.90
3051;DHT22;1535;51.098;6.414;2022-10-03T10:41:37;21.40;99.90
3051;DHT22;1535;51.098;6.414;2022-10-03T10:47:27;21.60;99.90
3051;DHT22;1535;51.098;6.414;2022-10-03T10:50:16;22.30;99.90
3051;DHT22;1535;51.098;6.414;2022-10-03T10:59:39;21.80;99.90
3051;DHT22;1535;51.098;6.414;2022-10-03T11:06:00;21.60;99.90
3051;DHT22;1535;51.098;6.414;2022-10-03T11:12:25;21.90;99.90
3051;DHT22;1535;51.098;6.414;2022-10-03T11:15:32;22.70;99.90
3051;DHT22;1535;51.098;6.414;2022-10-03T11:25:09;22.10;99.90
3051;DHT22;1535;51.098;6.414;2022-10-03T11:28:21;22.70;99.90
3051;DHT22;1535;51.098;6.414;2022-10-03T11:31:12;23.00;99.90
3051;DHT22;1535;51.098;6.414;2022-10-03T11:34:26;23.20;99.90
3051;DHT22;1535;51.098;6.414;2022-10-03T11:37:16;22.90;99.90
3051;DHT22;1535;51.098;6.414;2022-10-03T11:39:50;22.00;99.90
3051;DHT22;1535;51.098;6.414;2022-10-03T11:42:26;21.20;99.90
3051;DHT22;1535;51.098;6.414;2022-10-03T11:45:01;20.50;99.90
3051;DHT22;1535;51.098;6.414;2022-10-03T11:47:50;20.30;99.90
3051;DHT22;1535;51.098;6.414;2022-10-03T11:50:37;20.10;99.90
3051;DHT22;1535;51.098;6.414;2022-10-03T11:53:32;19.90;99.90
3051;DHT22;1535;51.098;6.414;2022-10-03T11:56:17;20.20;99.90
3051;DHT22;1535;51.098;6.414;2022-10-03T11:59:02;20.70;99.90
3051;DHT22;1535;51.098;6.414;2022-10-03T12:01:43;21.90;99.90
3051;DHT22;1535;51.098;6.414;2022-10-03T12:04:19;23.30;99.90
3051;DHT22;1535;51.098;6.414;2022-10-03T12:06:59;23.80;99.90
3051;DHT22;1535;51.098;6.414;2022-10-03T12:09:55;23.70;99.90
3051;DHT22;1535;51.098;6.414;2022-10-03T12:12:33;23.40;98.10
3051;DHT22;1535;51.098;6.414;2022-10-03T12:15:19;23.10;99.20
3051;DHT22;1535;51.098;6.414;2022-10-03T12:17:57;23.10;99.30
3051;DHT22;1535;51.098;6.414;2022-10-03T12:20:35;22.60;99.60
3051;DHT22;1535;51.098;6.414;2022-10-03T12:23:16;22.30;99.90
3051;DHT22;1535;51.098;6.414;2022-10-03T12:25:47;22.40;99.90
3051;DHT22;1535;51.098;6.414;2022-10-03T12:28:20;22.20;99.90
3051;DHT22;1535;51.098;6.414;2022-10-03T12:30:53;21.80;99.90
3051;DHT22;1535;51.098;6.414;2022-10-03T12:33:39;21.30;99.90
3051;DHT22;1535;51.098;6.414;2022-10-03T12:36:10;21.20;99.90
3051;DHT22;1535;51.098;6.414;2022-10-03T12:38:55;21.40;99.90
3051;DHT22;1535;51.098;6.414;2022-10-03T12:41:43;22.00;99.90
3051;DHT22;1535;51.098;6.414;2022-10-03T12:44:28;22.20;99.90
3051;DHT22;1535;51.098;6.414;2022-10-03T12:47:09;22.10;99.70
3051;DHT22;1535;51.098;6.414;2022-10-03T12:49:50;21.80;99.90
3051;DHT22;1535;51.098;6.414;2022-10-03T12:52:24;21.30;99.90
3051;DHT22;1535;51.098;6.414;2022-10-03T12:55:00;21.00;99.90
3051;DHT22;1535;51.098;6.414;2022-10-03T12:57:49;20.80;99.90
3051;DHT22;1535;51.098;6.414;2022-10-03T13:00:21;20.70;99.90
3051;DHT22;1535;51.098;6.414;2022-10-03T13:03:17;20.80;99.90
3051;DHT22;1535;51.098;6.414;2022-10-03T13:08:55;22.20;99.90
3051;DHT22;1535;51.098;6.414;2022-10-03T13:11:33;22.50;99.30
3051;DHT22;1535;51.098;6.414;2022-10-03T13:14:12;23.10;99.50
3051;DHT22;1535;51.098;6.414;2022-10-03T13:16:49;23.70;97.80
3051;DHT22;1535;51.098;6.414;2022-10-03T13:19:22;23.70;96.60
3051;DHT22;1535;51.098;6.414;2022-10-03T13:22:02;23.90;96.80
3051;DHT22;1535;51.098;6.414;2022-10-03T13:24:34;23.80;96.10
3051;DHT22;1535;51.098;6.414;2022-10-03T13:27:20;24.60;96.40
3051;DHT22;1535;51.098;6.414;2022-10-03T13:29:53;25.10;94.60
3051;DHT22;1535;51.098;6.414;2022-10-03T13:32:29;25.00;95.50
3051;DHT22;1535;51.098;6.414;2022-10-03T13:35:22;24.70;93.80
3051;DHT22;1535;51.098;6.414;2022-10-03T13:38:20;24.30;93.20
3051;DHT22;1535;51.098;6.414;2022-10-03T13:40:56;24.30;94.10
3051;DHT22;1535;51.098;6.414;2022-10-03T13:43:28;24.90;94.00
3051;DHT22;1535;51.098;6.414;2022-10-03T13:46:04;24.30;94.20
3051;DHT22;1535;51.098;6.414;2022-10-03T13:48:33;23.90;93.90
3051;DHT22;1535;51.098;6.414;2022-10-03T13:51:04;23.40;94.40
3051;DHT22;1535;51.098;6.414;2022-10-03T13:53:51;23.20;95.40
3051;DHT22;1535;51.098;6.414;2022-10-03T14:02:03;24.50;94.30
3051;DHT22;1535;51.098;6.414;2022-10-03T14:04:45;24.20;94.90
3051;DHT22;1535;51.098;6.414;2022-10-03T14:07:24;23.80;94.40
3051;DHT22;1535;51.098;6.414;2022-10-03T14:10:14;23.20;95.70
3051;DHT22;1535;51.098;6.414;2022-10-03T14:12:54;22.40;95.40
3051;DHT22;1535;51.098;6.414;2022-10-03T14:15:32;22.80;96.70
3051;DHT22;1535;51.098;6.414;2022-10-03T14:18:10;23.10;96.20
3051;DHT22;1535;51.098;6.414;2022-10-03T14:24:05;23.30;94.90
3051;DHT22;1535;51.098;6.414;2022-10-03T14:26:40;23.90;95.50
3051;DHT22;1535;51.098;6.414;2022-10-03T14:29:19;24.50;95.10
3051;DHT22;1535;51.098;6.414;2022-10-03T14:31:54;24.70;94.10
3051;DHT22;1535;51.098;6.414;2022-10-03T14:34:37;25.00;93.30
3051;DHT22;1535;51.098;6.414;2022-10-03T14:37:16;25.30;92.40
3051;DHT22;1535;51.098;6.414;2022-10-03T14:39:55;25.50;92.50
3051;DHT22;1535;51.098;6.414;2022-10-03T14:42:34;24.60;92.20
3051;DHT22;1535;51.098;6.414;2022-10-03T14:45:08;24.90;92.40
3051;DHT22;1535;51.098;6.414;2022-10-03T14:47:40;24.80;92.60
3051;DHT22;1535;51.098;6.414;2022-10-03T14:50:14;23.80;93.50
3051;DHT22;1535;51.098;6.414;2022-10-03T14:52:44;22.90;93.40
3051;DHT22;1535;51.098;6.414;2022-10-03T14:55:13;22.90;94.10
3051;DHT22;1535;51.098;6.414;2022-10-03T14:57:47;23.00;94.10
3051;DHT22;1535;51.098;6.414;2022-10-03T15:00:31;22.40;94.20
3051;DHT22;1535;51.098;6.414;2022-10-03T15:03:14;22.00;95.40
3051;DHT22;1535;51.098;6.414;2022-10-03T15:05:56;21.60;95.00
3051;DHT22;1535;51.098;6.414;2022-10-03T15:08:25;21.30;95.90
3051;DHT22;1535;51.098;6.414;2022-10-03T15:10:55;21.30;96.40
3051;DHT22;1535;51.098;6.414;2022-10-03T15:13:24;21.00;96.90
3051;DHT22;1535;51.098;6.414;2022-10-03T15:15:54;20.80;97.50
3051;DHT22;1535;51.098;6.414;2022-10-03T15:18:23;20.70;98.30
3051;DHT22;1535;51.098;6.414;2022-10-03T15:20:52;20.70;99.30
3051;DHT22;1535;51.098;6.414;2022-10-03T15:23:21;20.70;99.10
3051;DHT22;1535;51.098;6.414;2022-10-03T15:25:49;20.50;99.30
3051;DHT22;1535;51.098;6.414;2022-10-03T15:28:21;20.00;99.90
3051;DHT22;1535;51.098;6.414;2022-10-03T15:30:52;20.00;99.90
3051;DHT22;1535;51.098;6.414;2022-10-03T15:33:24;19.90;99.90
3051;DHT22;1535;51.098;6.414;2022-10-03T15:36:05;19.70;99.90
3051;DHT22;1535;51.098;6.414;2022-10-03T15:38:37;19.60;99.90
3051;DHT22;1535;51.098;6.414;2022-10-03T15:41:08;19.30;99.90
3051;DHT22;1535;51.098;6.414;2022-10-03T15:43:43;19.10;99.90
3051;DHT22;1535;51.098;6.414;2022-10-03T15:46:21;19.20;99.90
3051;DHT22;1535;51.098;6.414;2022-10-03T15:48:52;18.90;99.90
3051;DHT22;1535;51.098;6.414;2022-10-03T15:51:23;18.50;99.90
3051;DHT22;1535;51.098;6.414;2022-10-03T15:53:54;18.30;99.90
3051;DHT22;1535;51.098;6.414;2022-10-03T15:56:25;18.10;99.90
3051;DHT22;1535;51.098;6.414;2022-10-03T15:58:59;18.10;99.90
3051;DHT22;1535;51.098;6.414;2022-10-03T16:01:32;17.90;99.90
3051;DHT22;1535;51.098;6.414;2022-10-03T16:04:02;17.90;99.90
3051;DHT22;1535;51.098;6.414;2022-10-03T16:06:36;18.00;99.90
3051;DHT22;1535;51.098;6.414;2022-10-03T16:09:09;17.80;99.90
3051;DHT22;1535;51.098;6.414;2022-10-03T16:11:46;17.90;99.90
3051;DHT22;1535;51.098;6.414;2022-10-03T16:14:19;17.90;99.90
3051;DHT22;1535;51.098;6.414;2022-10-03T16:16:51;17.60;99.90
3051;DHT22;1535;51.098;6.414;2022-10-03T16:19:29;17.60;99.90
3051;DHT22;1535;51.098;6.414;2022-10-03T16:22:10;17.70;99.90
3051;DHT22;1535;51.098;6.414;2022-10-03T16:24:42;17.70;99.90
3051;DHT22;1535;51.098;6.414;2022-10-03T16:27:14;17.60;99.90
3051;DHT22;1535;51.098;6.414;2022-10-03T16:29:47;17.40;99.90
3051;DHT22;1535;51.098;6.414;2022-10-03T16:32:20;17.50;99.90
3051;DHT22;1535;51.098;6.414;2022-10-03T16:34:48;17.30;99.90
3051;DHT22;1535;51.098;6.414;2022-10-03T16:37:19;17.30;99.90
3051;DHT22;1535;51.098;6.414;2022-10-03T16:39:54;16.90;99.90
3051;DHT22;1535;51.098;6.414;2022-10-03T16:42:23;17.00;99.90
3051;DHT22;1535;51.098;6.414;2022-10-03T16:44:54;17.00;99.90
3051;DHT22;1535;51.098;6.414;2022-10-03T16:47:33;16.90;99.90
3051;DHT22;1535;51.098;6.414;2022-10-03T16:50:02;16.90;99.90
3051;DHT22;1535;51.098;6.414;2022-10-03T16:52:49;16.80;99.90
3051;DHT22;1535;51.098;6.414;2022-10-03T16:55:21;16.50;99.90
3051;DHT22;1535;51.098;6.414;2022-10-03T16:57:54;16.40;99.90
3051;DHT22;1535;51.098;6.414;2022-10-03T17:00:25;16.30;99.90
3051;DHT22;1535;51.098;6.414;2022-10-03T17:02:56;16.20;99.90
3051;DHT22;1535;51.098;6.414;2022-10-03T17:05:25;16.20;99.90
3051;DHT22;1535;51.098;6.414;2022-10-03T17:07:57;16.10;99.90
3051;DHT22;1535;51.098;6.414;2022-10-03T17:10:32;16.00;99.90
3051;DHT22;1535;51.098;6.414;2022-10-03T17:13:05;15.80;99.90
3051;DHT22;1535;51.098;6.414;2022-10-03T17:15:45;15.60;99.90
3051;DHT22;1535;51.098;6.414;2022-10-03T17:18:20;15.40;99.90
3051;DHT22;1535;51.098;6.414;2022-10-03T17:20:51;15.20;99.90
3051;DHT22;1535;51.098;6.414;2022-10-03T17:23:25;15.10;99.90
3051;DHT22;1535;51.098;6.414;2022-10-03T17:26:01;15.10;99.90
3051;DHT22;1535;51.098;6.414;2022-10-03T17:28:35;15.00;99.90
3051;DHT22;1535;51.098;6.414;2022-10-03T17:31:05;14.90;99.90
3051;DHT22;1535;51.098;6.414;2022-10-03T17:33:40;14.90;99.90
3051;DHT22;1535;51.098;6.414;2022-10-03T17:39:32;14.60;99.90
3051;DHT22;1535;51.098;6.414;2022-10-03T17:42:05;14.50;99.90
3051;DHT22;1535;51.098;6.414;2022-10-03T17:44:36;14.40;99.90
3051;DHT22;1535;51.098;6.414;2022-10-03T17:47:11;14.30;99.90
3051;DHT22;1535;51.098;6.414;2022-10-03T17:49:50;14.40;99.90
3051;DHT22;1535;51.098;6.414;2022-10-03T17:52:20;14.30;99.90
3051;DHT22;1535;51.098;6.414;2022-10-03T17:54:50;14.20;99.90
3051;DHT22;1535;51.098;6.414;2022-10-03T17:57:22;14.10;99.90
3051;DHT22;1535;51.098;6.414;2022-10-03T17:59:56;13.90;99.90
3051;DHT22;1535;51.098;6.414;2022-10-03T18:02:33;13.80;99.90
3051;DHT22;1535;51.098;6.414;2022-10-03T18:05:08;13.80;99.90
3051;DHT22;1535;51.098;6.414;2022-10-03T18:07:39;13.70;99.90
3051;DHT22;1535;51.098;6.414;2022-10-03T18:10:17;13.60;99.90
3051;DHT22;1535;51.098;6.414;2022-10-03T18:12:47;13.60;99.90
3051;DHT22;1535;51.098;6.414;2022-10-03T18:15:31;13.60;99.90
3051;DHT22;1535;51.098;6.414;2022-10-03T18:18:35;13.50;99.90
3051;DHT22;1535;51.098;6.414;2022-10-03T18:21:16;13.40;99.90
3051;DHT22;1535;51.098;6.414;2022-10-03T18:23:56;13.30;99.90
3051;DHT22;1535;51.098;6.414;2022-10-03T18:26:34;13.20;99.90
3051;DHT22;1535;51.098;6.414;2022-10-03T18:29:15;13.20;99.90
3051;DHT22;1535;51.098;6.414;2022-10-03T18:31:48;13.10;99.90
3051;DHT22;1535;51.098;6.414;2022-10-03T18:34:19;13.00;99.90
3051;DHT22;1535;51.098;6.414;2022-10-03T18:36:53;13.00;99.90
3051;DHT22;1535;51.098;6.414;2022-10-03T18:39:23;12.90;99.90
3051;DHT22;1535;51.098;6.414;2022-10-03T18:41:53;12.80;99.90
3051;DHT22;1535;51.098;6.414;2022-10-03T18:44:24;12.80;99.90
3051;DHT22;1535;51.098;6.414;2022-10-03T18:47:05;12.70;99.90
3051;DHT22;1535;51.098;6.414;2022-10-03T18:49:39;12.60;99.90
3051;DHT22;1535;51.098;6.414;2022-10-03T18:52:15;12.60;99.90
3051;DHT22;1535;51.098;6.414;2022-10-03T18:54:54;12.60;99.90
3051;DHT22;1535;51.098;6.414;2022-10-03T18:57:30;12.50;99.90
3051;DHT22;1535;51.098;6.414;2022-10-03T19:00:03;12.50;99.90
3051;DHT22;1535;51.098;6.414;2022-10-03T19:02:34;12.50;99.90
3051;DHT22;1535;51.098;6.414;2022-10-03T19:05:07;12.50;99.90
3051;DHT22;1535;51.098;6.414;2022-10-03T19:07:46;12.50;99.90
3051;DHT22;1535;51.098;6.414;2022-10-03T19:10:35;12.50;99.90
3051;DHT22;1535;51.098;6.414;2022-10-03T19:13:09;12.40;99.90
3051;DHT22;1535;51.098;6.414;2022-10-03T19:18:40;12.20;99.90
3051;DHT22;1535;51.098;6.414;2022-10-03T19:21:13;12.20;99.90
3051;DHT22;1535;51.098;6.414;2022-10-03T19:23:47;12.20;99.90
3051;DHT22;1535;51.098;6.414;2022-10-03T19:26:23;12.10;99.90
3051;DHT22;1535;51.098;6.414;2022-10-03T19:28:53;12.10;99.90
3051;DHT22;1535;51.098;6.414;2022-10-03T19:31:24;12.10;99.90
3051;DHT22;1535;51.098;6.414;2022-10-03T19:33:57;12.10;99.90
3051;DHT22;1535;51.098;6.414;2022-10-03T19:36:28;12.00;99.90
3051;DHT22;1535;51.098;6.414;2022-10-03T19:38:57;12.00;99.90
3051;DHT22;1535;51.098;6.414;2022-10-03T19:41:28;12.10;99.90
3051;DHT22;1535;51.098;6.414;2022-10-03T19:44:01;12.10;99.90
3051;DHT22;1535;51.098;6.414;2022-10-03T19:46:50;12.00;99.90